sensor_id;sensor_type;location;lat;lon;timestamp;pressure;altitude;pressure_sealevel;temperature;humidity
21900;BME280;11114;50.658;12.704;2022-11-20T00:01:31;95555.47;;;-8.93;64.82
21900;BME280;11114;50.658;12.704;2022-11-20T00:03:59;95553.63;;;-8.91;64.57
21900;BME280;11114;50.658;12.704;2022-11-20T00:06:28;95556.81;;;-8.88;64.91
21900;BME280;11114;50.658;12.704;2022-11-20T00:08:58;95549.44;;;-8.80;64.88
21900;BME280;11114;50.658;12.704;2022-11-20T00:11:27;95551.59;;;-8.74;64.57
21900;BME280;11114;50.658;12.704;2022-11-20T00:13:58;95558.03;;;-8.68;64.64
21900;BME280;11114;50.658;12.704;2022-11-20T00:16:28;95552.81;;;-8.67;64.62
21900;BME280;11114;50.658;12.704;2022-11-20T00:18:57;95554.03;;;-8.60;64.58
21900;BME280;11114;50.658;12.704;2022-11-20T00:21:26;95548.22;;;-8.62;63.64
21900;BME280;11114;50.658;12.704;2022-11-20T00:23:55;95540.22;;;-8.70;63.58
21900;BME280;11114;50.658;12.704;2022-11-20T00:26:25;95545.31;;;-8.82;62.35
21900;BME280;11114;50.658;12.704;2022-11-20T00:28:58;95545.63;;;-9.12;62.35
21900;BME280;11114;50.658;12.704;2022-11-20T00:31:27;95550.25;;;-9.17;63.11
21900;BME280;11114;50.658;12.704;2022-11-20T00:33:55;95546.84;;;-9.17;63.07
21900;BME280;11114;50.658;12.704;2022-11-20T00:36:24;95546.16;;;-9.19;63.46
21900;BME280;11114;50.658;12.704;2022-11-20T00:38:54;95552.50;;;-9.12;63.57
21900;BME280;11114;50.658;12.704;2022-11-20T00:41:22;95546.97;;;-9.19;62.85
21900;BME280;11114;50.658;12.704;2022-11-20T00:43:54;95552.88;;;-9.30;62.48
21900;BME280;11114;50.658;12.704;2022-11-20T00:46:25;95553.06;;;-9.46;62.69
21900;BME280;11114;50.658;12.704;2022-11-20T00:48:53;95556.53;;;-9.47;62.99
21900;BME280;11114;50.658;12.704;2022-11-20T00:51:23;95561.25;;;-9.41;63.18
21900;BME280;11114;50.658;12.704;2022-11-20T00:53:51;95559.84;;;-9.32;63.43
21900;BME280;11114;50.658;12.704;2022-11-20T00:56:19;95549.81;;;-9.35;62.89
21900;BME280;11114;50.658;12.704;2022-11-20T00:58:48;95544.97;;;-9.40;63.13
21900;BME280;11114;50.658;12.704;2022-11-20T01:01:18;95547.09;;;-9.46;62.75
21900;BME280;11114;50.658;12.704;2022-11-20T01:03:48;95543.78;;;-9.61;62.84
21900;BME280;11114;50.658;12.704;2022-11-20T01:08:46;95540.00;;;-9.68;63.30
21900;BME280;11114;50.658;12.704;2022-11-20T01:11:19;95542.56;;;-9.68;63.43
21900;BME280;11114;50.658;12.704;2022-11-20T01:13:48;95539.22;;;-9.56;63.96
21900;BME280;11114;50.658;12.704;2022-11-20T01:16:19;95542.28;;;-9.51;63.31
21900;BME280;11114;50.658;12.704;2022-11-20T01:18:50;95537.19;;;-9.51;63.64
21900;BME280;11114;50.658;12.704;2022-11-20T01:21:21;95528.28;;;-9.45;63.55
21900;BME280;11114;50.658;12.704;2022-11-20T01:23:50;95532.69;;;-9.47;63.38
21900;BME280;11114;50.658;12.704;2022-11-20T01:26:20;95524.19;;;-9.60;63.43
21900;BME280;11114;50.658;12.704;2022-11-20T01:28:49;95523.13;;;-9.70;63.66
21900;BME280;11114;50.658;12.704;2022-11-20T01:31:22;95515.28;;;-9.94;64.09
21900;BME280;11114;50.658;12.704;2022-11-20T01:33:52;95514.78;;;-10.12;64.40
21900;BME280;11114;50.658;12.704;2022-11-20T01:36:23;95506.16;;;-10.24;64.84
21900;BME280;11114;50.658;12.704;2022-11-20T01:38:52;95517.84;;;-10.20;65.18
21900;BME280;11114;50.658;12.704;2022-11-20T01:41:21;95516.25;;;-10.08;65.12
21900;BME280;11114;50.658;12.704;2022-11-20T01:44:10;95520.00;;;-9.88;65.77
21900;BME280;11114;50.658;12.704;2022-11-20T01:46:39;95522.94;;;-9.67;65.65
21900;BME280;11114;50.658;12.704;2022-11-20T01:49:24;95524.47;;;-9.65;64.62
21900;BME280;11114;50.658;12.704;2022-11-20T01:52:01;95516.84;;;-9.79;64.07
21900;BME280;11114;50.658;12.704;2022-11-20T01:54:42;95521.53;;;-9.98;64.14
21900;BME280;11114;50.658;12.704;2022-11-20T01:57:12;95512.78;;;-10.07;64.27
21900;BME280;11114;50.658;12.704;2022-11-20T01:59:44;95516.44;;;-10.11;64.17
21900;BME280;11114;50.658;12.704;2022-11-20T02:02:18;95506.78;;;-10.20;63.89
21900;BME280;11114;50.658;12.704;2022-11-20T02:04:47;95516.66;;;-10.28;64.01
21900;BME280;11114;50.658;12.704;2022-11-20T02:07:15;95515.25;;;-10.32;64.27
21900;BME280;11114;50.658;12.704;2022-11-20T02:09:44;95515.41;;;-10.35;64.28
21900;BME280;11114;50.658;12.704;2022-11-20T02:12:11;95516.38;;;-10.50;63.88
21900;BME280;11114;50.658;12.704;2022-11-20T02:14:59;95513.72;;;-10.63;64.27
21900;BME280;11114;50.658;12.704;2022-11-20T02:17:27;95515.47;;;-10.63;64.51
21900;BME280;11114;50.658;12.704;2022-11-20T02:19:55;95506.38;;;-10.67;64.57
21900;BME280;11114;50.658;12.704;2022-11-20T02:22:36;95504.16;;;-10.73;64.51
21900;BME280;11114;50.658;12.704;2022-11-20T02:25:07;95508.53;;;-10.75;64.80
21900;BME280;11114;50.658;12.704;2022-11-20T02:27:35;95505.34;;;-10.79;65.11
21900;BME280;11114;50.658;12.704;2022-11-20T02:30:05;95502.16;;;-10.82;64.80
21900;BME280;11114;50.658;12.704;2022-11-20T02:32:35;95496.25;;;-10.83;65.13
21900;BME280;11114;50.658;12.704;2022-11-20T02:37:59;95498.72;;;-10.95;65.19
21900;BME280;11114;50.658;12.704;2022-11-20T02:40:28;95502.91;;;-11.08;65.50
21900;BME280;11114;50.658;12.704;2022-11-20T02:42:57;95506.09;;;-11.18;65.77
21900;BME280;11114;50.658;12.704;2022-11-20T02:45:25;95503.19;;;-11.26;66.40
21900;BME280;11114;50.658;12.704;2022-11-20T02:47:53;95496.69;;;-11.32;66.66
21900;BME280;11114;50.658;12.704;2022-11-20T02:50:20;95495.44;;;-11.25;66.73
21900;BME280;11114;50.658;12.704;2022-11-20T02:52:48;95495.53;;;-11.26;66.54
21900;BME280;11114;50.658;12.704;2022-11-20T02:55:16;95495.06;;;-11.33;66.73
21900;BME280;11114;50.658;12.704;2022-11-20T02:57:44;95498.69;;;-11.37;66.95
21900;BME280;11114;50.658;12.704;2022-11-20T03:00:12;95502.34;;;-11.41;67.17
21900;BME280;11114;50.658;12.704;2022-11-20T03:02:40;95499.94;;;-11.44;67.13
21900;BME280;11114;50.658;12.704;2022-11-20T03:05:07;95498.31;;;-11.45;67.21
21900;BME280;11114;50.658;12.704;2022-11-20T03:07:35;95491.75;;;-11.49;67.43
21900;BME280;11114;50.658;12.704;2022-11-20T03:10:04;95491.75;;;-11.49;67.48
21900;BME280;11114;50.658;12.704;2022-11-20T03:12:32;95495.22;;;-11.36;67.80
21900;BME280;11114;50.658;12.704;2022-11-20T03:14:59;95482.50;;;-11.22;67.23
21900;BME280;11114;50.658;12.704;2022-11-20T03:17:27;95482.31;;;-11.19;67.21
21900;BME280;11114;50.658;12.704;2022-11-20T03:19:56;95471.41;;;-11.21;66.80
21900;BME280;11114;50.658;12.704;2022-11-20T03:22:24;95473.94;;;-11.21;66.92
21900;BME280;11114;50.658;12.704;2022-11-20T03:24:52;95477.41;;;-11.22;67.00
21900;BME280;11114;50.658;12.704;2022-11-20T03:27:19;95477.41;;;-11.22;66.91
21900;BME280;11114;50.658;12.704;2022-11-20T03:29:47;95463.53;;;-11.18;67.11
21900;BME280;11114;50.658;12.704;2022-11-20T03:32:15;95462.75;;;-11.18;66.82
21900;BME280;11114;50.658;12.704;2022-11-20T03:34:42;95468.66;;;-11.18;66.89
21900;BME280;11114;50.658;12.704;2022-11-20T03:37:10;95468.47;;;-11.15;66.92
21900;BME280;11114;50.658;12.704;2022-11-20T03:39:38;95460.56;;;-11.10;66.84
21900;BME280;11114;50.658;12.704;2022-11-20T03:42:05;95463.63;;;-11.05;66.89
21900;BME280;11114;50.658;12.704;2022-11-20T03:44:53;95457.91;;;-10.95;66.86
21900;BME280;11114;50.658;12.704;2022-11-20T03:47:21;95450.31;;;-10.83;66.83
21900;BME280;11114;50.658;12.704;2022-11-20T03:49:49;95450.91;;;-10.65;67.03
21900;BME280;11114;50.658;12.704;2022-11-20T03:52:17;95444.59;;;-10.46;66.87
21900;BME280;11114;50.658;12.704;2022-11-20T03:54:44;95447.56;;;-10.39;65.95
21900;BME280;11114;50.658;12.704;2022-11-20T03:57:12;95442.56;;;-10.41;65.76
21900;BME280;11114;50.658;12.704;2022-11-20T03:59:39;95446.94;;;-10.43;65.82
21900;BME280;11114;50.658;12.704;2022-11-20T04:02:07;95446.66;;;-10.38;66.09
21900;BME280;11114;50.658;12.704;2022-11-20T04:04:35;95444.53;;;-10.32;66.08
21900;BME280;11114;50.658;12.704;2022-11-20T04:07:03;95440.78;;;-10.26;65.68
21900;BME280;11114;50.658;12.704;2022-11-20T04:09:30;95450.31;;;-10.42;65.30
21900;BME280;11114;50.658;12.704;2022-11-20T04:11:58;95452.56;;;-10.64;65.67
21900;BME280;11114;50.658;12.704;2022-11-20T04:14:26;95455.31;;;-10.67;66.27
21900;BME280;11114;50.658;12.704;2022-11-20T04:16:53;95464.13;;;-10.59;66.52
21900;BME280;11114;50.658;12.704;2022-11-20T04:19:21;95454.13;;;-10.35;67.23
21900;BME280;11114;50.658;12.704;2022-11-20T04:21:49;95462.16;;;-10.15;66.90
21900;BME280;11114;50.658;12.704;2022-11-20T04:24:17;95460.56;;;-10.04;65.97
21900;BME280;11114;50.658;12.704;2022-11-20T04:26:45;95460.97;;;-10.09;65.35
21900;BME280;11114;50.658;12.704;2022-11-20T04:29:12;95452.63;;;-10.25;65.09
21900;BME280;11114;50.658;12.704;2022-11-20T04:31:40;95456.69;;;-10.35;64.96
21900;BME280;11114;50.658;12.704;2022-11-20T04:34:11;95453.06;;;-10.45;65.68
21900;BME280;11114;50.658;12.704;2022-11-20T04:36:39;95448.25;;;-10.50;65.51
21900;BME280;11114;50.658;12.704;2022-11-20T04:39:06;95446.75;;;-10.40;65.83
21900;BME280;11114;50.658;12.704;2022-11-20T04:41:36;95448.16;;;-10.22;66.19
21900;BME280;11114;50.658;12.704;2022-11-20T04:44:05;95442.03;;;-10.19;65.17
21900;BME280;11114;50.658;12.704;2022-11-20T04:46:36;95435.97;;;-10.31;65.09
21900;BME280;11114;50.658;12.704;2022-11-20T04:49:05;95439.72;;;-10.36;65.16
21900;BME280;11114;50.658;12.704;2022-11-20T04:51:33;95435.03;;;-10.30;65.85
21900;BME280;11114;50.658;12.704;2022-11-20T04:54:01;95437.94;;;-10.22;65.79
21900;BME280;11114;50.658;12.704;2022-11-20T04:56:29;95427.09;;;-10.25;65.34
21900;BME280;11114;50.658;12.704;2022-11-20T04:59:00;95438.94;;;-10.24;65.85
21900;BME280;11114;50.658;12.704;2022-11-20T05:01:29;95441.59;;;-10.26;65.32
21900;BME280;11114;50.658;12.704;2022-11-20T05:03:56;95446.50;;;-10.23;65.55
21900;BME280;11114;50.658;12.704;2022-11-20T05:06:24;95434.75;;;-10.25;65.50
21900;BME280;11114;50.658;12.704;2022-11-20T05:08:52;95435.50;;;-10.23;65.47
21900;BME280;11114;50.658;12.704;2022-11-20T05:11:20;95434.78;;;-10.39;65.11
21900;BME280;11114;50.658;12.704;2022-11-20T05:13:49;95432.88;;;-10.62;64.63
21900;BME280;11114;50.658;12.704;2022-11-20T05:16:20;95433.63;;;-10.74;65.98
21900;BME280;11114;50.658;12.704;2022-11-20T05:18:49;95439.03;;;-10.52;66.17
21900;BME280;11114;50.658;12.704;2022-11-20T05:21:17;95433.25;;;-10.42;65.59
21900;BME280;11114;50.658;12.704;2022-11-20T05:23:46;95432.91;;;-10.50;65.41
21900;BME280;11114;50.658;12.704;2022-11-20T05:26:21;95428.63;;;-10.49;65.88
21900;BME280;11114;50.658;12.704;2022-11-20T05:28:50;95432.75;;;-10.47;65.90
21900;BME280;11114;50.658;12.704;2022-11-20T05:31:21;95442.03;;;-10.46;65.61
21900;BME280;11114;50.658;12.704;2022-11-20T05:33:55;95427.75;;;-10.62;66.12
21900;BME280;11114;50.658;12.704;2022-11-20T05:36:23;95427.09;;;-10.52;66.19
21900;BME280;11114;50.658;12.704;2022-11-20T05:38:51;95431.38;;;-10.52;65.75
21900;BME280;11114;50.658;12.704;2022-11-20T05:41:26;95427.63;;;-10.47;65.64
21900;BME280;11114;50.658;12.704;2022-11-20T05:43:53;95425.41;;;-10.39;65.79
21900;BME280;11114;50.658;12.704;2022-11-20T05:46:21;95417.47;;;-10.34;65.88
21900;BME280;11114;50.658;12.704;2022-11-20T05:48:56;95416.66;;;-10.22;65.76
21900;BME280;11114;50.658;12.704;2022-11-20T05:51:25;95410.53;;;-10.32;64.41
21900;BME280;11114;50.658;12.704;2022-11-20T05:53:56;95409.50;;;-10.56;65.03
21900;BME280;11114;50.658;12.704;2022-11-20T05:56:23;95417.50;;;-10.48;65.61
21900;BME280;11114;50.658;12.704;2022-11-20T05:58:51;95408.06;;;-10.34;65.64
21900;BME280;11114;50.658;12.704;2022-11-20T06:01:24;95412.56;;;-10.25;65.29
21900;BME280;11114;50.658;12.704;2022-11-20T06:03:53;95412.22;;;-10.19;65.29
21900;BME280;11114;50.658;12.704;2022-11-20T06:06:21;95408.09;;;-10.21;64.77
21900;BME280;11114;50.658;12.704;2022-11-20T06:08:49;95404.00;;;-10.24;64.93
21900;BME280;11114;50.658;12.704;2022-11-20T06:11:17;95406.25;;;-10.19;65.30
21900;BME280;11114;50.658;12.704;2022-11-20T06:13:46;95412.59;;;-10.12;64.71
21900;BME280;11114;50.658;12.704;2022-11-20T06:16:16;95411.78;;;-10.25;64.27
21900;BME280;11114;50.658;12.704;2022-11-20T06:18:44;95413.00;;;-10.45;63.54
21900;BME280;11114;50.658;12.704;2022-11-20T06:21:15;95408.00;;;-10.46;64.73
21900;BME280;11114;50.658;12.704;2022-11-20T06:23:47;95414.03;;;-10.47;64.73
21900;BME280;11114;50.658;12.704;2022-11-20T06:26:23;95414.25;;;-10.50;64.90
21900;BME280;11114;50.658;12.704;2022-11-20T06:28:51;95423.81;;;-10.54;64.59
21900;BME280;11114;50.658;12.704;2022-11-20T06:31:21;95415.63;;;-10.59;64.79
21900;BME280;11114;50.658;12.704;2022-11-20T06:33:51;95424.19;;;-10.60;64.90
21900;BME280;11114;50.658;12.704;2022-11-20T06:36:21;95424.75;;;-10.69;64.87
21900;BME280;11114;50.658;12.704;2022-11-20T06:38:50;95423.97;;;-10.69;65.51
21900;BME280;11114;50.658;12.704;2022-11-20T06:41:20;95419.59;;;-10.67;65.71
21900;BME280;11114;50.658;12.704;2022-11-20T06:43:48;95408.09;;;-10.74;65.33
21900;BME280;11114;50.658;12.704;2022-11-20T06:46:17;95409.56;;;-10.84;65.83
21900;BME280;11114;50.658;12.704;2022-11-20T06:48:47;95415.06;;;-10.76;66.52
21900;BME280;11114;50.658;12.704;2022-11-20T06:51:15;95410.19;;;-10.67;66.52
21900;BME280;11114;50.658;12.704;2022-11-20T06:53:43;95410.00;;;-10.64;66.29
21900;BME280;11114;50.658;12.704;2022-11-20T06:56:11;95410.06;;;-10.65;66.15
21900;BME280;11114;50.658;12.704;2022-11-20T06:58:39;95411.00;;;-10.66;66.12
21900;BME280;11114;50.658;12.704;2022-11-20T07:01:12;95418.03;;;-10.70;66.01
21900;BME280;11114;50.658;12.704;2022-11-20T07:03:41;95418.69;;;-10.80;66.09
21900;BME280;11114;50.658;12.704;2022-11-20T07:06:09;95428.72;;;-10.77;66.36
21900;BME280;11114;50.658;12.704;2022-11-20T07:08:40;95431.00;;;-10.73;66.70
21900;BME280;11114;50.658;12.704;2022-11-20T07:11:11;95423.69;;;-10.65;66.60
21900;BME280;11114;50.658;12.704;2022-11-20T07:13:39;95426.94;;;-10.63;66.59
21900;BME280;11114;50.658;12.704;2022-11-20T07:16:07;95432.69;;;-10.59;66.80
21900;BME280;11114;50.658;12.704;2022-11-20T07:18:36;95427.19;;;-10.53;67.30
21900;BME280;11114;50.658;12.704;2022-11-20T07:21:06;95421.06;;;-10.51;67.58
21900;BME280;11114;50.658;12.704;2022-11-20T07:23:35;95422.25;;;-10.42;68.32
21900;BME280;11114;50.658;12.704;2022-11-20T07:26:07;95422.78;;;-10.25;68.41
21900;BME280;11114;50.658;12.704;2022-11-20T07:28:36;95425.38;;;-10.12;68.69
21900;BME280;11114;50.658;12.704;2022-11-20T07:31:04;95420.91;;;-9.97;69.04
21900;BME280;11114;50.658;12.704;2022-11-20T07:33:34;95427.00;;;-9.85;68.94
21900;BME280;11114;50.658;12.704;2022-11-20T07:36:03;95417.88;;;-9.77;69.33
21900;BME280;11114;50.658;12.704;2022-11-20T07:38:30;95410.66;;;-9.70;69.71
21900;BME280;11114;50.658;12.704;2022-11-20T07:40:58;95414.84;;;-9.57;70.07
21900;BME280;11114;50.658;12.704;2022-11-20T07:43:29;95421.78;;;-9.46;70.10
21900;BME280;11114;50.658;12.704;2022-11-20T07:45:58;95411.78;;;-9.37;70.36
21900;BME280;11114;50.658;12.704;2022-11-20T07:48:26;95411.88;;;-9.26;70.71
21900;BME280;11114;50.658;12.704;2022-11-20T07:50:55;95409.41;;;-9.15;71.17
21900;BME280;11114;50.658;12.704;2022-11-20T07:53:23;95411.03;;;-9.02;71.09
21900;BME280;11114;50.658;12.704;2022-11-20T07:55:51;95411.13;;;-8.91;71.36
21900;BME280;11114;50.658;12.704;2022-11-20T07:58:20;95409.63;;;-8.82;71.64
21900;BME280;11114;50.658;12.704;2022-11-20T08:00:48;95411.56;;;-8.73;71.61
21900;BME280;11114;50.658;12.704;2022-11-20T08:03:16;95397.44;;;-8.66;71.74
21900;BME280;11114;50.658;12.704;2022-11-20T08:05:51;95397.72;;;-8.58;71.64
21900;BME280;11114;50.658;12.704;2022-11-20T08:08:19;95408.31;;;-8.52;71.88
21900;BME280;11114;50.658;12.704;2022-11-20T08:10:47;95412.00;;;-8.43;71.94
21900;BME280;11114;50.658;12.704;2022-11-20T08:13:14;95404.91;;;-8.40;71.92
21900;BME280;11114;50.658;12.704;2022-11-20T08:16:01;95396.44;;;-8.30;71.89
21900;BME280;11114;50.658;12.704;2022-11-20T08:18:28;95396.13;;;-8.25;72.00
21900;BME280;11114;50.658;12.704;2022-11-20T08:21:03;95397.44;;;-8.20;71.98
21900;BME280;11114;50.658;12.704;2022-11-20T08:23:32;95394.53;;;-8.15;72.25
21900;BME280;11114;50.658;12.704;2022-11-20T08:25:59;95397.81;;;-8.13;72.37
21900;BME280;11114;50.658;12.704;2022-11-20T08:28:27;95392.34;;;-8.09;72.62
21900;BME280;11114;50.658;12.704;2022-11-20T08:31:00;95392.59;;;-8.01;72.62
21900;BME280;11114;50.658;12.704;2022-11-20T08:33:28;95387.75;;;-7.93;72.60
21900;BME280;11114;50.658;12.704;2022-11-20T08:36:00;95393.78;;;-7.94;72.70
21900;BME280;11114;50.658;12.704;2022-11-20T08:38:29;95387.53;;;-7.90;72.85
21900;BME280;11114;50.658;12.704;2022-11-20T08:41:02;95385.44;;;-7.85;73.00
21900;BME280;11114;50.658;12.704;2022-11-20T08:44:09;95386.72;;;-7.79;73.37
21900;BME280;11114;50.658;12.704;2022-11-20T08:46:39;95385.97;;;-7.69;73.19
21900;BME280;11114;50.658;12.704;2022-11-20T08:49:10;95386.22;;;-7.61;73.26
21900;BME280;11114;50.658;12.704;2022-11-20T08:51:38;95389.38;;;-7.58;73.38
21900;BME280;11114;50.658;12.704;2022-11-20T08:54:07;95393.91;;;-7.50;73.78
21900;BME280;11114;50.658;12.704;2022-11-20T08:56:35;95390.41;;;-7.49;73.79
21900;BME280;11114;50.658;12.704;2022-11-20T08:59:03;95384.00;;;-7.44;73.91
21900;BME280;11114;50.658;12.704;2022-11-20T09:01:51;95380.28;;;-7.40;73.96
21900;BME280;11114;50.658;12.704;2022-11-20T09:04:18;95382.25;;;-7.32;73.90
21900;BME280;11114;50.658;12.704;2022-11-20T09:06:46;95376.44;;;-7.23;74.11
21900;BME280;11114;50.658;12.704;2022-11-20T09:09:18;95367.34;;;-7.16;73.86
21900;BME280;11114;50.658;12.704;2022-11-20T09:11:46;95366.63;;;-7.07;73.88
21900;BME280;11114;50.658;12.704;2022-11-20T09:14:14;95365.47;;;-7.03;73.78
21900;BME280;11114;50.658;12.704;2022-11-20T09:16:45;95375.16;;;-6.96;73.88
21900;BME280;11114;50.658;12.704;2022-11-20T09:19:13;95378.53;;;-6.95;73.92
21900;BME280;11114;50.658;12.704;2022-11-20T09:22:00;95374.59;;;-6.99;74.06
21900;BME280;11114;50.658;12.704;2022-11-20T09:24:28;95378.19;;;-7.02;74.12
21900;BME280;11114;50.658;12.704;2022-11-20T09:26:56;95372.25;;;-7.02;74.16
21900;BME280;11114;50.658;12.704;2022-11-20T09:29:24;95371.41;;;-7.03;74.35
21900;BME280;11114;50.658;12.704;2022-11-20T09:31:51;95363.03;;;-7.05;74.35
21900;BME280;11114;50.658;12.704;2022-11-20T09:34:19;95363.84;;;-7.04;74.58
21900;BME280;11114;50.658;12.704;2022-11-20T09:36:47;95372.81;;;-6.99;74.63
21900;BME280;11114;50.658;12.704;2022-11-20T09:39:14;95374.09;;;-6.93;74.63
21900;BME280;11114;50.658;12.704;2022-11-20T09:53:16;95365.09;;;-6.77;74.90
21900;BME280;11114;50.658;12.704;2022-11-20T09:55:48;95360.91;;;-6.89;74.77
21900;BME280;11114;50.658;12.704;2022-11-20T09:58:26;95373.28;;;-6.94;75.51
21900;BME280;11114;50.658;12.704;2022-11-20T10:01:10;95373.19;;;-6.92;75.63
21900;BME280;11114;50.658;12.704;2022-11-20T10:06:30;95380.16;;;-7.05;75.87
21900;BME280;11114;50.658;12.704;2022-11-20T10:14:53;95369.44;;;-6.99;76.47
21900;BME280;11114;50.658;12.704;2022-11-20T10:29:19;95356.34;;;-6.85;76.02
21900;BME280;11114;50.658;12.704;2022-11-20T10:31:56;95364.06;;;-6.75;76.20
21900;BME280;11114;50.658;12.704;2022-11-20T10:37:18;95358.41;;;-6.58;76.20
21900;BME280;11114;50.658;12.704;2022-11-20T10:40:00;95369.53;;;-6.68;75.91
21900;BME280;11114;50.658;12.704;2022-11-20T10:42:56;95369.19;;;-6.64;76.25
21900;BME280;11114;50.658;12.704;2022-11-20T10:48:10;95362.84;;;-6.71;76.41
21900;BME280;11114;50.658;12.704;2022-11-20T10:50:53;95353.19;;;-6.78;76.34
21900;BME280;11114;50.658;12.704;2022-11-20T10:53:42;95359.13;;;-6.78;76.81
21900;BME280;11114;50.658;12.704;2022-11-20T10:56:35;95361.47;;;-6.75;77.05
21900;BME280;11114;50.658;12.704;2022-11-20T11:02:22;95338.66;;;-6.57;77.00
21900;BME280;11114;50.658;12.704;2022-11-20T11:04:53;95340.84;;;-6.42;76.73
21900;BME280;11114;50.658;12.704;2022-11-20T11:07:35;95350.06;;;-6.39;76.48
21900;BME280;11114;50.658;12.704;2022-11-20T11:10:22;95334.56;;;-6.49;76.65
21900;BME280;11114;50.658;12.704;2022-11-20T11:12:51;95343.63;;;-6.45;76.80
21900;BME280;11114;50.658;12.704;2022-11-20T11:15:40;95341.75;;;-6.32;76.96
21900;BME280;11114;50.658;12.704;2022-11-20T11:18:09;95334.66;;;-6.19;76.91
21900;BME280;11114;50.658;12.704;2022-11-20T11:20:37;95339.81;;;-6.19;76.40
21900;BME280;11114;50.658;12.704;2022-11-20T11:23:26;95332.69;;;-6.15;76.47
21900;BME280;11114;50.658;12.704;2022-11-20T11:25:57;95330.19;;;-6.06;76.46
21900;BME280;11114;50.658;12.704;2022-11-20T11:28:26;95332.19;;;-6.09;76.24
21900;BME280;11114;50.658;12.704;2022-11-20T11:30:55;95328.88;;;-6.00;76.44
21900;BME280;11114;50.658;12.704;2022-11-20T11:33:32;95328.59;;;-5.98;76.17
21900;BME280;11114;50.658;12.704;2022-11-20T11:36:05;95326.63;;;-5.94;76.19
21900;BME280;11114;50.658;12.704;2022-11-20T11:38:44;95312.56;;;-5.90;76.10
21900;BME280;11114;50.658;12.704;2022-11-20T11:41:16;95319.09;;;-5.86;76.00
21900;BME280;11114;50.658;12.704;2022-11-20T11:43:56;95320.03;;;-5.87;76.05
21900;BME280;11114;50.658;12.704;2022-11-20T11:46:51;95324.72;;;-5.92;75.82
21900;BME280;11114;50.658;12.704;2022-11-20T11:49:20;95326.22;;;-6.10;76.01
21900;BME280;11114;50.658;12.704;2022-11-20T11:54:51;95315.69;;;-6.07;76.85
21900;BME280;11114;50.658;12.704;2022-11-20T11:57:34;95308.84;;;-5.97;76.79
21900;BME280;11114;50.658;12.704;2022-11-20T12:00:12;95314.19;;;-5.89;76.74
21900;BME280;11114;50.658;12.704;2022-11-20T12:05:28;95312.03;;;-5.84;76.15
21900;BME280;11114;50.658;12.704;2022-11-20T12:08:04;95300.91;;;-5.94;76.20
21900;BME280;11114;50.658;12.704;2022-11-20T12:10:49;95309.56;;;-5.95;76.62
21900;BME280;11114;50.658;12.704;2022-11-20T12:15:54;95310.31;;;-6.04;76.89
21900;BME280;11114;50.658;12.704;2022-11-20T12:18:22;95300.00;;;-6.04;76.91
21900;BME280;11114;50.658;12.704;2022-11-20T12:29:37;95300.38;;;-5.88;77.01
21900;BME280;11114;50.658;12.704;2022-11-20T12:35:11;95286.97;;;-5.92;77.01
21900;BME280;11114;50.658;12.704;2022-11-20T12:38:05;95293.38;;;-5.86;77.25
21900;BME280;11114;50.658;12.704;2022-11-20T12:41:08;95299.56;;;-5.89;76.88
21900;BME280;11114;50.658;12.704;2022-11-20T12:44:11;95303.72;;;-5.97;77.31
21900;BME280;11114;50.658;12.704;2022-11-20T12:49:58;95292.72;;;-5.99;77.95
21900;BME280;11114;50.658;12.704;2022-11-20T12:55:36;95275.78;;;-6.01;78.40
21900;BME280;11114;50.658;12.704;2022-11-20T13:06:44;95282.59;;;-5.71;77.98
21900;BME280;11114;50.658;12.704;2022-11-20T13:09:15;95280.69;;;-5.78;78.16
21900;BME280;11114;50.658;12.704;2022-11-20T13:12:04;95282.53;;;-5.90;78.54
21900;BME280;11114;50.658;12.704;2022-11-20T13:14:46;95290.09;;;-5.88;79.07
21900;BME280;11114;50.658;12.704;2022-11-20T13:19:59;95275.41;;;-5.77;78.55
21900;BME280;11114;50.658;12.704;2022-11-20T13:22:28;95277.97;;;-5.77;78.32
21900;BME280;11114;50.658;12.704;2022-11-20T13:24:56;95280.13;;;-5.82;78.64
21900;BME280;11114;50.658;12.704;2022-11-20T13:27:24;95269.69;;;-5.80;78.70
21900;BME280;11114;50.658;12.704;2022-11-20T13:30:14;95269.69;;;-5.80;79.10
21900;BME280;11114;50.658;12.704;2022-11-20T13:32:54;95274.72;;;-5.79;78.79
21900;BME280;11114;50.658;12.704;2022-11-20T13:35:34;95268.75;;;-5.79;78.91
21900;BME280;11114;50.658;12.704;2022-11-20T13:38:07;95268.78;;;-5.70;79.08
21900;BME280;11114;50.658;12.704;2022-11-20T13:40:54;95279.47;;;-5.74;78.69
21900;BME280;11114;50.658;12.704;2022-11-20T13:43:27;95280.78;;;-5.80;79.08
21900;BME280;11114;50.658;12.704;2022-11-20T13:46:03;95282.75;;;-5.72;78.87
21900;BME280;11114;50.658;12.704;2022-11-20T13:48:34;95282.22;;;-5.66;78.53
21900;BME280;11114;50.658;12.704;2022-11-20T14:02:22;95269.31;;;-5.76;78.70
21900;BME280;11114;50.658;12.704;2022-11-20T14:04:52;95272.28;;;-5.80;79.35
21900;BME280;11114;50.658;12.704;2022-11-20T14:07:24;95281.88;;;-5.82;78.93
21900;BME280;11114;50.658;12.704;2022-11-20T14:09:56;95289.84;;;-5.85;79.21
21900;BME280;11114;50.658;12.704;2022-11-20T14:12:30;95275.34;;;-5.86;79.07
21900;BME280;11114;50.658;12.704;2022-11-20T14:14:58;95282.56;;;-5.80;79.21
21900;BME280;11114;50.658;12.704;2022-11-20T14:17:32;95274.41;;;-5.85;79.03
21900;BME280;11114;50.658;12.704;2022-11-20T14:20:04;95279.84;;;-5.79;79.30
21900;BME280;11114;50.658;12.704;2022-11-20T14:22:32;95280.69;;;-5.78;79.04
21900;BME280;11114;50.658;12.704;2022-11-20T14:25:20;95283.38;;;-5.80;79.28
21900;BME280;11114;50.658;12.704;2022-11-20T14:27:55;95291.97;;;-5.90;79.13
21900;BME280;11114;50.658;12.704;2022-11-20T14:30:37;95287.28;;;-5.85;79.35
21900;BME280;11114;50.658;12.704;2022-11-20T14:33:06;95284.72;;;-5.85;79.37
21900;BME280;11114;50.658;12.704;2022-11-20T14:35:37;95279.84;;;-5.79;79.41
21900;BME280;11114;50.658;12.704;2022-11-20T14:38:12;95282.97;;;-5.75;79.28
21900;BME280;11114;50.658;12.704;2022-11-20T14:40:41;95284.13;;;-5.68;79.17
21900;BME280;11114;50.658;12.704;2022-11-20T14:45:58;95287.13;;;-5.63;79.17